Porto Santo Airport Vila Baleira PT
ICAO: LPPS
IATA: PXO
Category: Medium
Scheduled Services: Yes

Elevation: 341 ft
TransAlt. 5000 ft.

Airport Communications:
GCA:123.3
TWR:118.4

LPPS Zoom In..

If you have problems with the map follow the link
https://www.worldairports.se/pages/airport.php?
ICAO=LPPS

Runways:

(A) RW 18 length 7871 ft width 148 ft
---- / hdg 184

(B) RW 36 length 7871 ft width 148 ft
---- / hdg 4

Location; LPPS
Day. 21 / Time. 07.30 Zulu
* QNH: 1015
* Temperature: 19° c. 66.2°f.
* Wind from: 300° Speed 07 kn.
Dewpoint: 16° c.
Visibility: 10 km or more.
Clouds: Scattered 1400 ft.
Clouds: Few 1800 ft.

LPPS 210730Z 30007KT 9999 SCT014 FEW018CB 19/16 Q1015


Wind From 300°
Speed 07 kn.

 
 
jpsmedia.com for Web Design worldairports.se 2018   terms of use